sensor_id;sensor_type;location;lat;lon;timestamp;P1;durP1;ratioP1;P2;durP2;ratioP2
46290;SDS011;32023;44.444;26.006;2022-08-19T00:01:23;16.73;;;9.65;;
46290;SDS011;32023;44.444;26.006;2022-08-19T00:03:57;14.00;;;9.45;;
46290;SDS011;32023;44.444;26.006;2022-08-19T00:06:34;15.43;;;10.23;;
46290;SDS011;32023;44.444;26.006;2022-08-19T00:09:06;12.48;;;9.68;;
46290;SDS011;32023;44.444;26.006;2022-08-19T00:11:48;13.25;;;9.13;;
46290;SDS011;32023;44.444;26.006;2022-08-19T00:21:33;16.42;;;9.75;;
46290;SDS011;32023;44.444;26.006;2022-08-19T00:31:41;17.23;;;10.88;;
46290;SDS011;32023;44.444;26.006;2022-08-19T00:34:53;14.38;;;9.75;;
46290;SDS011;32023;44.444;26.006;2022-08-19T00:44:25;17.02;;;11.40;;
46290;SDS011;32023;44.444;26.006;2022-08-19T00:46:49;14.60;;;10.50;;
46290;SDS011;32023;44.444;26.006;2022-08-19T00:52:07;16.08;;;11.20;;
46290;SDS011;32023;44.444;26.006;2022-08-19T00:54:41;16.35;;;10.93;;
46290;SDS011;32023;44.444;26.006;2022-08-19T00:57:10;14.02;;;11.07;;
46290;SDS011;32023;44.444;26.006;2022-08-19T00:59:52;18.90;;;12.25;;
46290;SDS011;32023;44.444;26.006;2022-08-19T01:02:22;16.15;;;11.40;;
46290;SDS011;32023;44.444;26.006;2022-08-19T01:04:56;19.42;;;10.95;;
46290;SDS011;32023;44.444;26.006;2022-08-19T01:07:28;19.48;;;11.95;;
46290;SDS011;32023;44.444;26.006;2022-08-19T01:10:13;17.40;;;11.65;;
46290;SDS011;32023;44.444;26.006;2022-08-19T01:12:48;22.33;;;11.27;;
46290;SDS011;32023;44.444;26.006;2022-08-19T01:15:19;26.88;;;11.35;;
46290;SDS011;32023;44.444;26.006;2022-08-19T01:17:49;17.02;;;11.05;;
46290;SDS011;32023;44.444;26.006;2022-08-19T01:20:18;24.52;;;11.80;;
46290;SDS011;32023;44.444;26.006;2022-08-19T01:22:52;17.83;;;11.32;;
46290;SDS011;32023;44.444;26.006;2022-08-19T01:28:19;17.35;;;11.50;;
46290;SDS011;32023;44.444;26.006;2022-08-19T01:31:00;17.55;;;11.57;;
46290;SDS011;32023;44.444;26.006;2022-08-19T01:33:27;17.40;;;12.10;;
46290;SDS011;32023;44.444;26.006;2022-08-19T01:36:22;15.95;;;12.68;;
46290;SDS011;32023;44.444;26.006;2022-08-19T01:39:09;19.25;;;12.48;;
46290;SDS011;32023;44.444;26.006;2022-08-19T01:41:38;19.35;;;12.32;;
46290;SDS011;32023;44.444;26.006;2022-08-19T01:44:11;24.95;;;12.43;;
46290;SDS011;32023;44.444;26.006;2022-08-19T01:46:43;16.92;;;12.55;;
46290;SDS011;32023;44.444;26.006;2022-08-19T01:49:12;19.50;;;12.63;;
46290;SDS011;32023;44.444;26.006;2022-08-19T01:51:39;17.77;;;12.68;;
46290;SDS011;32023;44.444;26.006;2022-08-19T01:54:09;22.25;;;12.57;;
46290;SDS011;32023;44.444;26.006;2022-08-19T01:56:36;15.43;;;12.82;;
46290;SDS011;32023;44.444;26.006;2022-08-19T02:01:49;16.60;;;13.48;;
46290;SDS011;32023;44.444;26.006;2022-08-19T02:04:15;25.13;;;12.90;;
46290;SDS011;32023;44.444;26.006;2022-08-19T02:06:42;19.50;;;12.98;;
46290;SDS011;32023;44.444;26.006;2022-08-19T02:09:14;21.90;;;13.52;;
46290;SDS011;32023;44.444;26.006;2022-08-19T02:11:42;19.77;;;13.25;;
46290;SDS011;32023;44.444;26.006;2022-08-19T02:14:11;18.08;;;13.80;;
46290;SDS011;32023;44.444;26.006;2022-08-19T02:16:38;21.08;;;13.75;;
46290;SDS011;32023;44.444;26.006;2022-08-19T02:19:05;17.98;;;13.68;;
46290;SDS011;32023;44.444;26.006;2022-08-19T02:21:32;19.08;;;13.55;;
46290;SDS011;32023;44.444;26.006;2022-08-19T02:24:00;19.08;;;13.57;;
46290;SDS011;32023;44.444;26.006;2022-08-19T02:26:27;21.00;;;12.75;;
46290;SDS011;32023;44.444;26.006;2022-08-19T02:28:55;14.60;;;12.55;;
46290;SDS011;32023;44.444;26.006;2022-08-19T02:31:23;17.48;;;13.38;;
46290;SDS011;32023;44.444;26.006;2022-08-19T02:33:56;22.73;;;14.10;;
46290;SDS011;32023;44.444;26.006;2022-08-19T02:36:23;16.08;;;13.70;;
46290;SDS011;32023;44.444;26.006;2022-08-19T02:38:59;25.55;;;13.75;;
46290;SDS011;32023;44.444;26.006;2022-08-19T02:41:31;18.02;;;14.13;;
46290;SDS011;32023;44.444;26.006;2022-08-19T02:43:59;15.10;;;13.02;;
46290;SDS011;32023;44.444;26.006;2022-08-19T02:46:31;19.90;;;13.95;;
46290;SDS011;32023;44.444;26.006;2022-08-19T02:48:59;16.83;;;14.10;;
46290;SDS011;32023;44.444;26.006;2022-08-19T02:51:32;22.00;;;14.57;;
46290;SDS011;32023;44.444;26.006;2022-08-19T02:54:04;16.88;;;13.63;;
46290;SDS011;32023;44.444;26.006;2022-08-19T02:56:33;22.73;;;13.75;;
46290;SDS011;32023;44.444;26.006;2022-08-19T02:59:01;20.60;;;14.48;;
46290;SDS011;32023;44.444;26.006;2022-08-19T03:01:32;19.80;;;14.05;;
46290;SDS011;32023;44.444;26.006;2022-08-19T03:04:00;22.75;;;14.07;;
46290;SDS011;32023;44.444;26.006;2022-08-19T03:06:29;24.25;;;14.00;;
46290;SDS011;32023;44.444;26.006;2022-08-19T03:08:59;23.40;;;13.73;;
46290;SDS011;32023;44.444;26.006;2022-08-19T03:11:30;19.33;;;13.75;;
46290;SDS011;32023;44.444;26.006;2022-08-19T03:13:58;19.05;;;14.45;;
46290;SDS011;32023;44.444;26.006;2022-08-19T03:16:26;24.70;;;15.13;;
46290;SDS011;32023;44.444;26.006;2022-08-19T03:18:57;25.92;;;14.15;;
46290;SDS011;32023;44.444;26.006;2022-08-19T03:21:25;23.55;;;14.40;;
46290;SDS011;32023;44.444;26.006;2022-08-19T03:23:54;20.50;;;14.98;;
46290;SDS011;32023;44.444;26.006;2022-08-19T03:26:21;20.35;;;14.73;;
46290;SDS011;32023;44.444;26.006;2022-08-19T03:28:52;20.38;;;14.45;;
46290;SDS011;32023;44.444;26.006;2022-08-19T03:31:21;20.00;;;14.32;;
46290;SDS011;32023;44.444;26.006;2022-08-19T03:33:49;26.80;;;13.85;;
46290;SDS011;32023;44.444;26.006;2022-08-19T03:36:36;20.92;;;14.43;;
46290;SDS011;32023;44.444;26.006;2022-08-19T03:39:03;20.33;;;14.13;;
46290;SDS011;32023;44.444;26.006;2022-08-19T03:41:39;19.73;;;13.98;;
46290;SDS011;32023;44.444;26.006;2022-08-19T03:44:05;17.30;;;14.02;;
46290;SDS011;32023;44.444;26.006;2022-08-19T03:46:35;23.92;;;13.50;;
46290;SDS011;32023;44.444;26.006;2022-08-19T03:49:03;19.50;;;14.10;;
46290;SDS011;32023;44.444;26.006;2022-08-19T03:51:35;19.40;;;13.85;;
46290;SDS011;32023;44.444;26.006;2022-08-19T03:54:07;20.25;;;13.48;;
46290;SDS011;32023;44.444;26.006;2022-08-19T03:56:36;22.92;;;13.52;;
46290;SDS011;32023;44.444;26.006;2022-08-19T04:01:41;28.92;;;14.52;;
46290;SDS011;32023;44.444;26.006;2022-08-19T04:04:08;19.52;;;14.18;;
46290;SDS011;32023;44.444;26.006;2022-08-19T04:06:38;31.15;;;14.40;;
46290;SDS011;32023;44.444;26.006;2022-08-19T04:09:08;20.00;;;13.52;;
46290;SDS011;32023;44.444;26.006;2022-08-19T04:11:39;23.25;;;13.02;;
46290;SDS011;32023;44.444;26.006;2022-08-19T04:14:11;17.73;;;12.93;;
46290;SDS011;32023;44.444;26.006;2022-08-19T04:16:52;18.80;;;12.85;;
46290;SDS011;32023;44.444;26.006;2022-08-19T04:19:19;20.52;;;13.18;;
46290;SDS011;32023;44.444;26.006;2022-08-19T04:21:47;18.73;;;12.63;;
46290;SDS011;32023;44.444;26.006;2022-08-19T04:26:46;21.70;;;11.82;;
46290;SDS011;32023;44.444;26.006;2022-08-19T04:29:14;26.58;;;12.48;;
46290;SDS011;32023;44.444;26.006;2022-08-19T04:31:43;30.63;;;13.73;;
46290;SDS011;32023;44.444;26.006;2022-08-19T04:34:11;16.52;;;11.85;;
46290;SDS011;32023;44.444;26.006;2022-08-19T04:36:40;17.90;;;12.60;;
46290;SDS011;32023;44.444;26.006;2022-08-19T04:42:09;13.65;;;11.75;;
46290;SDS011;32023;44.444;26.006;2022-08-19T04:44:54;19.92;;;12.10;;
46290;SDS011;32023;44.444;26.006;2022-08-19T04:47:22;17.55;;;11.20;;
46290;SDS011;32023;44.444;26.006;2022-08-19T04:49:50;19.08;;;12.05;;
46290;SDS011;32023;44.444;26.006;2022-08-19T04:52:20;20.65;;;12.15;;
46290;SDS011;32023;44.444;26.006;2022-08-19T04:54:46;24.50;;;11.48;;
46290;SDS011;32023;44.444;26.006;2022-08-19T04:57:13;25.27;;;12.35;;
46290;SDS011;32023;44.444;26.006;2022-08-19T04:59:53;19.38;;;11.70;;
46290;SDS011;32023;44.444;26.006;2022-08-19T05:02:21;19.75;;;12.38;;
46290;SDS011;32023;44.444;26.006;2022-08-19T05:04:49;26.58;;;13.35;;
46290;SDS011;32023;44.444;26.006;2022-08-19T05:07:21;24.58;;;12.98;;
46290;SDS011;32023;44.444;26.006;2022-08-19T05:09:48;23.20;;;12.88;;
46290;SDS011;32023;44.444;26.006;2022-08-19T05:12:14;30.85;;;11.88;;
46290;SDS011;32023;44.444;26.006;2022-08-19T05:14:43;20.58;;;12.52;;
46290;SDS011;32023;44.444;26.006;2022-08-19T05:17:11;21.30;;;11.77;;
46290;SDS011;32023;44.444;26.006;2022-08-19T05:22:56;16.85;;;10.82;;
46290;SDS011;32023;44.444;26.006;2022-08-19T05:25:25;25.73;;;11.23;;
46290;SDS011;32023;44.444;26.006;2022-08-19T05:27:51;19.30;;;10.77;;
46290;SDS011;32023;44.444;26.006;2022-08-19T05:30:20;15.70;;;9.95;;
46290;SDS011;32023;44.444;26.006;2022-08-19T05:32:55;27.40;;;11.88;;
46290;SDS011;32023;44.444;26.006;2022-08-19T05:35:31;17.90;;;10.05;;
46290;SDS011;32023;44.444;26.006;2022-08-19T05:38:00;20.90;;;12.18;;
46290;SDS011;32023;44.444;26.006;2022-08-19T05:40:27;20.40;;;11.18;;
46290;SDS011;32023;44.444;26.006;2022-08-19T05:43:04;23.02;;;11.50;;
46290;SDS011;32023;44.444;26.006;2022-08-19T05:45:31;21.90;;;12.45;;
46290;SDS011;32023;44.444;26.006;2022-08-19T05:48:05;19.13;;;12.38;;
46290;SDS011;32023;44.444;26.006;2022-08-19T05:50:42;15.27;;;10.20;;
46290;SDS011;32023;44.444;26.006;2022-08-19T05:53:35;11.70;;;9.85;;
46290;SDS011;32023;44.444;26.006;2022-08-19T05:56:12;15.95;;;9.90;;
46290;SDS011;32023;44.444;26.006;2022-08-19T05:58:41;17.63;;;10.07;;
46290;SDS011;32023;44.444;26.006;2022-08-19T06:01:17;16.85;;;9.43;;
46290;SDS011;32023;44.444;26.006;2022-08-19T06:03:44;17.08;;;9.38;;
46290;SDS011;32023;44.444;26.006;2022-08-19T06:06:13;19.50;;;9.93;;
46290;SDS011;32023;44.444;26.006;2022-08-19T06:08:41;14.57;;;8.93;;
46290;SDS011;32023;44.444;26.006;2022-08-19T06:11:18;22.05;;;9.23;;
46290;SDS011;32023;44.444;26.006;2022-08-19T06:14:02;17.33;;;9.57;;
46290;SDS011;32023;44.444;26.006;2022-08-19T06:16:54;13.20;;;8.35;;
46290;SDS011;32023;44.444;26.006;2022-08-19T06:19:26;13.90;;;7.20;;
46290;SDS011;32023;44.444;26.006;2022-08-19T06:21:55;17.05;;;8.15;;
46290;SDS011;32023;44.444;26.006;2022-08-19T06:24:24;12.32;;;7.97;;
46290;SDS011;32023;44.444;26.006;2022-08-19T06:26:54;11.13;;;8.13;;
46290;SDS011;32023;44.444;26.006;2022-08-19T06:29:31;13.02;;;7.30;;
46290;SDS011;32023;44.444;26.006;2022-08-19T06:32:23;18.30;;;8.48;;
46290;SDS011;32023;44.444;26.006;2022-08-19T06:34:56;17.73;;;8.07;;
46290;SDS011;32023;44.444;26.006;2022-08-19T06:37:23;14.90;;;7.63;;
46290;SDS011;32023;44.444;26.006;2022-08-19T06:40:01;15.18;;;7.65;;
46290;SDS011;32023;44.444;26.006;2022-08-19T06:46:33;17.40;;;8.18;;
46290;SDS011;32023;44.444;26.006;2022-08-19T07:16:49;14.60;;;6.10;;
46290;SDS011;32023;44.444;26.006;2022-08-19T07:19:50;10.80;;;5.72;;
46290;SDS011;32023;44.444;26.006;2022-08-19T07:22:51;8.20;;;5.90;;
46290;SDS011;32023;44.444;26.006;2022-08-19T07:25:18;7.20;;;6.05;;
46290;SDS011;32023;44.444;26.006;2022-08-19T07:27:49;9.00;;;6.28;;
46290;SDS011;32023;44.444;26.006;2022-08-19T07:33:29;10.13;;;5.45;;
46290;SDS011;32023;44.444;26.006;2022-08-19T07:36:18;9.70;;;5.82;;
46290;SDS011;32023;44.444;26.006;2022-08-19T07:39:28;9.15;;;5.03;;
46290;SDS011;32023;44.444;26.006;2022-08-19T07:42:16;12.85;;;4.88;;
46290;SDS011;32023;44.444;26.006;2022-08-19T07:45:02;9.50;;;5.20;;
46290;SDS011;32023;44.444;26.006;2022-08-19T07:51:07;7.78;;;5.00;;
46290;SDS011;32023;44.444;26.006;2022-08-19T08:00:31;9.25;;;4.70;;
46290;SDS011;32023;44.444;26.006;2022-08-19T08:03:00;11.93;;;5.03;;
46290;SDS011;32023;44.444;26.006;2022-08-19T08:05:40;8.20;;;5.13;;
46290;SDS011;32023;44.444;26.006;2022-08-19T08:15:04;8.50;;;4.60;;
46290;SDS011;32023;44.444;26.006;2022-08-19T08:20:37;9.30;;;5.05;;
46290;SDS011;32023;44.444;26.006;2022-08-19T08:23:23;19.95;;;4.75;;
46290;SDS011;32023;44.444;26.006;2022-08-19T08:36:16;15.73;;;5.70;;
46290;SDS011;32023;44.444;26.006;2022-08-19T08:42:12;9.48;;;4.40;;
46290;SDS011;32023;44.444;26.006;2022-08-19T08:53:16;8.55;;;4.32;;
46290;SDS011;32023;44.444;26.006;2022-08-19T08:55:47;10.63;;;4.68;;
46290;SDS011;32023;44.444;26.006;2022-08-19T09:01:35;8.95;;;4.35;;
46290;SDS011;32023;44.444;26.006;2022-08-19T09:04:48;6.35;;;4.47;;
46290;SDS011;32023;44.444;26.006;2022-08-19T09:18:16;5.75;;;4.28;;
46290;SDS011;32023;44.444;26.006;2022-08-19T09:23:49;8.10;;;4.50;;
46290;SDS011;32023;44.444;26.006;2022-08-19T09:27:12;6.95;;;4.50;;
46290;SDS011;32023;44.444;26.006;2022-08-19T10:15:02;4.40;;;3.97;;
46290;SDS011;32023;44.444;26.006;2022-08-19T10:22:39;5.60;;;4.20;;
46290;SDS011;32023;44.444;26.006;2022-08-19T10:28:20;5.15;;;3.72;;
46290;SDS011;32023;44.444;26.006;2022-08-19T10:53:02;7.28;;;5.22;;
46290;SDS011;32023;44.444;26.006;2022-08-19T10:56:14;5.90;;;5.37;;
46290;SDS011;32023;44.444;26.006;2022-08-19T12:17:01;5.68;;;4.35;;
46290;SDS011;32023;44.444;26.006;2022-08-19T12:19:38;11.50;;;4.73;;
46290;SDS011;32023;44.444;26.006;2022-08-19T12:22:07;13.15;;;4.60;;
46290;SDS011;32023;44.444;26.006;2022-08-19T12:24:42;7.47;;;4.45;;
46290;SDS011;32023;44.444;26.006;2022-08-19T14:02:12;7.30;;;4.68;;
46290;SDS011;32023;44.444;26.006;2022-08-19T14:04:46;9.45;;;4.38;;
46290;SDS011;32023;44.444;26.006;2022-08-19T14:07:12;6.75;;;4.00;;
46290;SDS011;32023;44.444;26.006;2022-08-19T14:09:39;9.20;;;4.38;;
46290;SDS011;32023;44.444;26.006;2022-08-19T14:12:26;9.43;;;4.55;;
46290;SDS011;32023;44.444;26.006;2022-08-19T14:15:05;6.70;;;4.05;;
46290;SDS011;32023;44.444;26.006;2022-08-19T14:17:32;9.05;;;4.20;;
46290;SDS011;32023;44.444;26.006;2022-08-19T14:20:33;5.38;;;4.35;;
46290;SDS011;32023;44.444;26.006;2022-08-19T14:23:25;8.40;;;4.35;;
46290;SDS011;32023;44.444;26.006;2022-08-19T14:27:00;7.05;;;4.63;;
46290;SDS011;32023;44.444;26.006;2022-08-19T14:29:42;14.43;;;4.95;;
46290;SDS011;32023;44.444;26.006;2022-08-19T15:48:48;10.15;;;4.00;;
46290;SDS011;32023;44.444;26.006;2022-08-19T15:51:42;6.90;;;3.80;;
46290;SDS011;32023;44.444;26.006;2022-08-19T15:54:50;5.05;;;4.10;;
46290;SDS011;32023;44.444;26.006;2022-08-19T16:00:56;7.75;;;4.43;;
46290;SDS011;32023;44.444;26.006;2022-08-19T16:07:09;12.20;;;4.72;;
46290;SDS011;32023;44.444;26.006;2022-08-19T16:13:20;13.80;;;4.10;;
46290;SDS011;32023;44.444;26.006;2022-08-19T16:15:46;7.70;;;4.78;;
46290;SDS011;32023;44.444;26.006;2022-08-19T16:18:21;13.68;;;5.13;;
46290;SDS011;32023;44.444;26.006;2022-08-19T16:20:49;11.95;;;4.72;;
46290;SDS011;32023;44.444;26.006;2022-08-19T16:23:17;8.45;;;4.53;;
46290;SDS011;32023;44.444;26.006;2022-08-19T16:25:51;9.50;;;4.38;;
46290;SDS011;32023;44.444;26.006;2022-08-19T16:28:18;7.75;;;4.18;;
46290;SDS011;32023;44.444;26.006;2022-08-19T16:30:48;7.20;;;4.18;;
46290;SDS011;32023;44.444;26.006;2022-08-19T16:36:11;8.73;;;4.80;;
46290;SDS011;32023;44.444;26.006;2022-08-19T16:38:37;11.90;;;4.18;;
46290;SDS011;32023;44.444;26.006;2022-08-19T16:41:04;11.88;;;4.25;;
46290;SDS011;32023;44.444;26.006;2022-08-19T16:43:36;8.27;;;4.18;;
46290;SDS011;32023;44.444;26.006;2022-08-19T16:46:02;13.13;;;4.30;;
46290;SDS011;32023;44.444;26.006;2022-08-19T17:01:40;8.18;;;3.72;;
46290;SDS011;32023;44.444;26.006;2022-08-19T17:17:11;15.63;;;6.07;;
46290;SDS011;32023;44.444;26.006;2022-08-19T17:23:04;17.15;;;6.70;;
46290;SDS011;32023;44.444;26.006;2022-08-19T17:25:42;14.57;;;5.65;;
46290;SDS011;32023;44.444;26.006;2022-08-19T17:28:24;8.75;;;5.70;;
46290;SDS011;32023;44.444;26.006;2022-08-19T17:30:55;14.02;;;5.05;;
46290;SDS011;32023;44.444;26.006;2022-08-19T17:33:27;16.30;;;5.70;;
46290;SDS011;32023;44.444;26.006;2022-08-19T17:35:59;16.10;;;5.38;;
46290;SDS011;32023;44.444;26.006;2022-08-19T17:38:28;13.15;;;4.82;;
46290;SDS011;32023;44.444;26.006;2022-08-19T17:41:18;15.45;;;4.60;;
46290;SDS011;32023;44.444;26.006;2022-08-19T17:43:48;15.23;;;4.53;;
46290;SDS011;32023;44.444;26.006;2022-08-19T17:46:14;16.40;;;3.88;;
46290;SDS011;32023;44.444;26.006;2022-08-19T17:49:02;9.43;;;4.05;;
46290;SDS011;32023;44.444;26.006;2022-08-19T17:54:04;8.35;;;4.18;;
46290;SDS011;32023;44.444;26.006;2022-08-19T17:56:47;14.80;;;5.22;;
46290;SDS011;32023;44.444;26.006;2022-08-19T17:59:13;12.75;;;4.57;;
46290;SDS011;32023;44.444;26.006;2022-08-19T18:07:04;12.98;;;4.90;;
46290;SDS011;32023;44.444;26.006;2022-08-19T18:12:33;10.65;;;5.15;;
46290;SDS011;32023;44.444;26.006;2022-08-19T18:15:07;16.08;;;5.15;;
46290;SDS011;32023;44.444;26.006;2022-08-19T18:17:39;12.57;;;4.70;;
46290;SDS011;32023;44.444;26.006;2022-08-19T18:20:16;8.70;;;4.85;;
46290;SDS011;32023;44.444;26.006;2022-08-19T18:22:47;10.77;;;4.75;;
46290;SDS011;32023;44.444;26.006;2022-08-19T18:30:30;10.60;;;4.80;;
46290;SDS011;32023;44.444;26.006;2022-08-19T18:36:05;15.60;;;4.22;;
46290;SDS011;32023;44.444;26.006;2022-08-19T18:45:00;9.75;;;4.25;;
46290;SDS011;32023;44.444;26.006;2022-08-19T18:54:01;15.13;;;5.13;;
46290;SDS011;32023;44.444;26.006;2022-08-19T19:00:12;11.32;;;4.88;;
46290;SDS011;32023;44.444;26.006;2022-08-19T19:02:43;15.57;;;4.75;;
46290;SDS011;32023;44.444;26.006;2022-08-19T19:08:32;13.77;;;5.32;;
46290;SDS011;32023;44.444;26.006;2022-08-19T19:11:09;11.35;;;5.18;;
46290;SDS011;32023;44.444;26.006;2022-08-19T19:14:02;14.82;;;5.22;;
46290;SDS011;32023;44.444;26.006;2022-08-19T19:17:12;15.25;;;5.60;;
46290;SDS011;32023;44.444;26.006;2022-08-19T19:31:59;21.65;;;5.53;;
46290;SDS011;32023;44.444;26.006;2022-08-19T19:34:56;10.60;;;4.50;;
46290;SDS011;32023;44.444;26.006;2022-08-19T19:38:05;13.02;;;4.65;;
46290;SDS011;32023;44.444;26.006;2022-08-19T19:41:19;18.80;;;4.72;;
46290;SDS011;32023;44.444;26.006;2022-08-19T19:50:55;14.05;;;4.68;;
46290;SDS011;32023;44.444;26.006;2022-08-19T19:56:56;13.45;;;4.80;;
46290;SDS011;32023;44.444;26.006;2022-08-19T19:59:50;8.85;;;4.40;;
46290;SDS011;32023;44.444;26.006;2022-08-19T20:02:39;14.23;;;4.95;;
46290;SDS011;32023;44.444;26.006;2022-08-19T20:05:46;12.80;;;4.68;;
46290;SDS011;32023;44.444;26.006;2022-08-19T20:08:41;15.82;;;4.88;;
46290;SDS011;32023;44.444;26.006;2022-08-19T20:14:24;12.80;;;4.63;;
46290;SDS011;32023;44.444;26.006;2022-08-19T20:16:53;11.63;;;4.65;;
46290;SDS011;32023;44.444;26.006;2022-08-19T20:19:30;13.30;;;5.32;;
46290;SDS011;32023;44.444;26.006;2022-08-19T20:22:05;18.90;;;4.63;;
46290;SDS011;32023;44.444;26.006;2022-08-19T20:24:47;14.02;;;5.18;;
46290;SDS011;32023;44.444;26.006;2022-08-19T20:27:26;13.27;;;4.93;;
46290;SDS011;32023;44.444;26.006;2022-08-19T20:30:12;14.75;;;4.53;;
46290;SDS011;32023;44.444;26.006;2022-08-19T20:33:08;14.32;;;4.82;;
46290;SDS011;32023;44.444;26.006;2022-08-19T20:35:43;14.85;;;4.88;;
46290;SDS011;32023;44.444;26.006;2022-08-19T20:38:10;13.88;;;4.80;;
46290;SDS011;32023;44.444;26.006;2022-08-19T20:43:18;20.10;;;5.85;;
46290;SDS011;32023;44.444;26.006;2022-08-19T20:45:48;14.43;;;5.45;;
46290;SDS011;32023;44.444;26.006;2022-08-19T20:48:14;14.63;;;5.25;;
46290;SDS011;32023;44.444;26.006;2022-08-19T20:50:57;11.48;;;5.35;;
46290;SDS011;32023;44.444;26.006;2022-08-19T20:53:26;14.65;;;5.28;;
46290;SDS011;32023;44.444;26.006;2022-08-19T20:55:55;12.13;;;5.38;;
46290;SDS011;32023;44.444;26.006;2022-08-19T20:58:33;10.85;;;5.10;;
46290;SDS011;32023;44.444;26.006;2022-08-19T21:01:02;11.68;;;5.40;;
46290;SDS011;32023;44.444;26.006;2022-08-19T21:03:34;11.95;;;5.93;;
46290;SDS011;32023;44.444;26.006;2022-08-19T21:06:11;10.25;;;5.20;;
46290;SDS011;32023;44.444;26.006;2022-08-19T21:08:39;17.52;;;5.60;;
46290;SDS011;32023;44.444;26.006;2022-08-19T21:13:38;11.07;;;5.35;;
46290;SDS011;32023;44.444;26.006;2022-08-19T21:16:05;12.63;;;5.40;;
46290;SDS011;32023;44.444;26.006;2022-08-19T21:18:31;10.43;;;5.47;;
46290;SDS011;32023;44.444;26.006;2022-08-19T21:21:16;13.23;;;5.97;;
46290;SDS011;32023;44.444;26.006;2022-08-19T21:23:51;10.73;;;5.65;;
46290;SDS011;32023;44.444;26.006;2022-08-19T21:26:17;17.60;;;5.53;;
46290;SDS011;32023;44.444;26.006;2022-08-19T21:28:53;19.90;;;6.80;;
46290;SDS011;32023;44.444;26.006;2022-08-19T21:31:25;13.73;;;5.63;;
46290;SDS011;32023;44.444;26.006;2022-08-19T21:33:57;20.50;;;5.93;;
46290;SDS011;32023;44.444;26.006;2022-08-19T21:36:25;18.15;;;6.05;;
46290;SDS011;32023;44.444;26.006;2022-08-19T21:38:51;23.33;;;6.50;;
46290;SDS011;32023;44.444;26.006;2022-08-19T21:41:24;18.98;;;6.45;;
46290;SDS011;32023;44.444;26.006;2022-08-19T21:46:39;13.45;;;5.57;;
46290;SDS011;32023;44.444;26.006;2022-08-19T21:49:06;14.93;;;5.57;;
46290;SDS011;32023;44.444;26.006;2022-08-19T21:51:42;14.57;;;5.97;;
46290;SDS011;32023;44.444;26.006;2022-08-19T21:57:35;14.30;;;6.32;;
46290;SDS011;32023;44.444;26.006;2022-08-19T22:03:02;13.90;;;6.50;;
46290;SDS011;32023;44.444;26.006;2022-08-19T22:05:34;24.52;;;6.38;;
46290;SDS011;32023;44.444;26.006;2022-08-19T22:08:24;14.25;;;6.07;;
46290;SDS011;32023;44.444;26.006;2022-08-19T22:10:53;17.27;;;7.07;;
46290;SDS011;32023;44.444;26.006;2022-08-19T22:16:05;15.02;;;6.20;;
46290;SDS011;32023;44.444;26.006;2022-08-19T22:18:34;15.45;;;6.57;;
46290;SDS011;32023;44.444;26.006;2022-08-19T22:21:01;12.30;;;5.57;;
46290;SDS011;32023;44.444;26.006;2022-08-19T22:23:31;15.32;;;5.93;;
46290;SDS011;32023;44.444;26.006;2022-08-19T22:26:00;17.67;;;6.10;;
46290;SDS011;32023;44.444;26.006;2022-08-19T22:28:31;17.83;;;6.50;;
46290;SDS011;32023;44.444;26.006;2022-08-19T22:31:02;15.73;;;6.78;;
46290;SDS011;32023;44.444;26.006;2022-08-19T22:33:35;20.80;;;6.32;;
46290;SDS011;32023;44.444;26.006;2022-08-19T22:36:02;16.92;;;6.05;;
46290;SDS011;32023;44.444;26.006;2022-08-19T22:38:33;12.38;;;6.38;;
46290;SDS011;32023;44.444;26.006;2022-08-19T22:41:18;17.75;;;6.40;;
46290;SDS011;32023;44.444;26.006;2022-08-19T22:43:59;18.45;;;6.95;;
46290;SDS011;32023;44.444;26.006;2022-08-19T22:46:38;13.57;;;6.57;;
46290;SDS011;32023;44.444;26.006;2022-08-19T22:49:21;18.52;;;7.00;;
46290;SDS011;32023;44.444;26.006;2022-08-19T22:51:47;16.92;;;6.05;;
46290;SDS011;32023;44.444;26.006;2022-08-19T22:54:32;24.15;;;6.88;;
46290;SDS011;32023;44.444;26.006;2022-08-19T22:57:01;13.77;;;5.72;;
46290;SDS011;32023;44.444;26.006;2022-08-19T22:59:28;17.52;;;6.65;;
46290;SDS011;32023;44.444;26.006;2022-08-19T23:01:55;12.05;;;6.57;;
46290;SDS011;32023;44.444;26.006;2022-08-19T23:04:30;16.55;;;6.45;;
46290;SDS011;32023;44.444;26.006;2022-08-19T23:06:59;13.27;;;6.05;;
46290;SDS011;32023;44.444;26.006;2022-08-19T23:09:31;9.55;;;6.22;;
46290;SDS011;32023;44.444;26.006;2022-08-19T23:12:00;15.95;;;6.03;;
46290;SDS011;32023;44.444;26.006;2022-08-19T23:17:53;14.70;;;5.73;;
46290;SDS011;32023;44.444;26.006;2022-08-19T23:20:24;15.30;;;6.07;;
46290;SDS011;32023;44.444;26.006;2022-08-19T23:23:16;11.15;;;5.88;;
46290;SDS011;32023;44.444;26.006;2022-08-19T23:25:52;10.50;;;5.25;;
46290;SDS011;32023;44.444;26.006;2022-08-19T23:28:20;24.00;;;6.07;;
46290;SDS011;32023;44.444;26.006;2022-08-19T23:31:06;20.02;;;5.57;;
46290;SDS011;32023;44.444;26.006;2022-08-19T23:33:34;18.95;;;5.78;;
46290;SDS011;32023;44.444;26.006;2022-08-19T23:36:08;17.42;;;6.60;;
46290;SDS011;32023;44.444;26.006;2022-08-19T23:38:45;17.20;;;5.63;;
46290;SDS011;32023;44.444;26.006;2022-08-19T23:41:17;19.95;;;5.93;;
46290;SDS011;32023;44.444;26.006;2022-08-19T23:47:14;14.40;;;5.57;;
46290;SDS011;32023;44.444;26.006;2022-08-19T23:49:43;14.50;;;6.10;;
46290;SDS011;32023;44.444;26.006;2022-08-19T23:52:15;21.15;;;5.70;;
46290;SDS011;32023;44.444;26.006;2022-08-19T23:54:42;15.93;;;5.63;;
46290;SDS011;32023;44.444;26.006;2022-08-19T23:57:26;17.33;;;6.20;;
46290;SDS011;32023;44.444;26.006;2022-08-19T23:59:53;12.95;;;5.53;;
